createdAt,value
2022-11-25T00:02:30.228Z,6.60
2022-11-25T00:05:17.122Z,6.60
2022-11-25T00:08:05.852Z,6.70
2022-11-25T00:10:52.541Z,6.70
2022-11-25T00:13:40.969Z,6.70
2022-11-25T00:16:28.805Z,6.70
2022-11-25T00:19:15.557Z,6.70
2022-11-25T00:22:02.792Z,6.70
2022-11-25T00:24:50.975Z,6.70
2022-11-25T00:27:37.439Z,6.70
2022-11-25T00:30:24.528Z,6.80
2022-11-25T00:33:11.322Z,6.80
2022-11-25T00:36:00.799Z,6.80
2022-11-25T00:38:48.890Z,6.80
2022-11-25T00:41:54.738Z,6.90
2022-11-25T00:44:42.233Z,6.90
2022-11-25T00:47:30.284Z,6.90
2022-11-25T00:50:17.135Z,6.90
2022-11-25T00:53:04.897Z,7.00
2022-11-25T00:56:09.172Z,7.00
2022-11-25T00:58:57.814Z,6.90
2022-11-25T01:01:44.917Z,7.00
2022-11-25T01:04:31.662Z,7.00
2022-11-25T01:07:18.997Z,7.00
2022-11-25T01:10:06.636Z,7.00
2022-11-25T01:12:53.275Z,7.00
2022-11-25T01:15:41.539Z,7.00
2022-11-25T01:18:29.291Z,7.10
2022-11-25T01:21:19.032Z,7.10
2022-11-25T01:24:07.643Z,7.10
2022-11-25T01:26:56.021Z,7.10
2022-11-25T01:29:42.995Z,7.20
2022-11-25T01:32:31.332Z,7.20
2022-11-25T01:35:18.072Z,7.20
2022-11-25T01:38:04.811Z,7.20
2022-11-25T01:40:51.618Z,7.20
2022-11-25T01:43:39.184Z,7.30
2022-11-25T01:46:30.264Z,7.30
2022-11-25T01:49:24.350Z,7.30
2022-11-25T01:52:18.762Z,7.30
2022-11-25T01:55:13.812Z,7.30
2022-11-25T01:58:07.174Z,7.30
2022-11-25T02:00:54.223Z,7.30
2022-11-25T02:03:47.247Z,7.40
2022-11-25T02:06:42.965Z,7.40
2022-11-25T02:09:30.990Z,7.40
2022-11-25T02:12:21.044Z,7.40
2022-11-25T02:15:09.227Z,7.50
2022-11-25T02:17:56.109Z,7.50
2022-11-25T02:20:43.578Z,7.50
2022-11-25T02:23:41.358Z,7.50
2022-11-25T02:26:30.089Z,7.60
2022-11-25T02:29:16.690Z,7.60
2022-11-25T02:32:03.564Z,7.60
2022-11-25T02:34:51.056Z,7.70
2022-11-25T02:37:38.198Z,7.70
2022-11-25T02:40:26.763Z,7.70
2022-11-25T02:43:16.195Z,7.80
2022-11-25T02:46:07.061Z,7.80
2022-11-25T02:49:11.958Z,7.80
2022-11-25T02:51:58.582Z,7.80
2022-11-25T02:54:45.796Z,7.80
2022-11-25T02:57:32.474Z,7.90
2022-11-25T03:00:22.192Z,7.90
2022-11-25T03:03:09.487Z,7.90
2022-11-25T03:05:56.066Z,7.90
2022-11-25T03:08:43.094Z,7.90
2022-11-25T03:11:44.020Z,8.00
2022-11-25T03:14:31.186Z,7.90
2022-11-25T03:17:19.562Z,8.00
2022-11-25T03:20:08.490Z,8.00
2022-11-25T03:22:55.449Z,8.00
2022-11-25T03:25:42.131Z,8.00
2022-11-25T03:28:29.092Z,8.10
2022-11-25T03:31:16.708Z,8.10
2022-11-25T03:34:04.546Z,8.10
2022-11-25T03:36:51.502Z,8.10
2022-11-25T03:39:38.097Z,8.20
2022-11-25T03:42:25.017Z,8.20
2022-11-25T03:45:15.381Z,8.20
2022-11-25T03:48:02.463Z,8.20
2022-11-25T03:50:50.948Z,8.30
2022-11-25T03:53:37.619Z,8.30
2022-11-25T03:56:24.384Z,8.30
2022-11-25T03:59:11.502Z,8.30
2022-11-25T04:01:58.269Z,8.40
2022-11-25T04:04:44.962Z,8.30
2022-11-25T04:07:33.560Z,8.40
2022-11-25T04:10:20.657Z,8.40
2022-11-25T04:13:06.419Z,8.40
2022-11-25T04:15:53.897Z,8.40
2022-11-25T04:18:40.786Z,8.40
2022-11-25T04:21:27.528Z,8.40
2022-11-25T04:24:15.681Z,8.40
2022-11-25T04:27:02.348Z,8.40
2022-11-25T04:29:49.450Z,8.40
2022-11-25T04:32:38.550Z,8.40
2022-11-25T04:35:25.935Z,8.40
2022-11-25T04:38:12.991Z,8.40
2022-11-25T04:41:01.013Z,8.40
2022-11-25T04:43:47.754Z,8.40
2022-11-25T04:46:41.038Z,8.40
2022-11-25T04:49:27.935Z,8.40
2022-11-25T04:52:14.769Z,8.40
2022-11-25T04:55:01.980Z,8.40
2022-11-25T04:57:50.525Z,8.40
2022-11-25T05:00:36.381Z,8.50
2022-11-25T05:03:23.285Z,8.50
2022-11-25T05:06:11.073Z,8.50
2022-11-25T05:08:57.608Z,8.50
2022-11-25T05:11:44.806Z,8.50
2022-11-25T05:14:32.810Z,8.50
2022-11-25T05:17:22.871Z,8.50
2022-11-25T05:20:12.451Z,8.50
2022-11-25T05:22:59.971Z,8.50
2022-11-25T05:25:46.652Z,8.50
2022-11-25T05:28:34.865Z,8.60
2022-11-25T05:31:23.537Z,8.60
2022-11-25T05:34:10.310Z,8.60
2022-11-25T05:36:57.363Z,8.60
2022-11-25T05:39:44.000Z,8.60
2022-11-25T05:42:34.693Z,8.60
2022-11-25T05:45:42.209Z,8.60
2022-11-25T05:49:46.180Z,8.60
2022-11-25T05:52:34.442Z,8.60
2022-11-25T05:55:21.096Z,8.60
2022-11-25T05:58:07.986Z,8.60
2022-11-25T06:00:55.079Z,8.60
2022-11-25T06:03:43.648Z,8.60
2022-11-25T06:06:32.132Z,8.50
2022-11-25T06:09:20.494Z,8.50
2022-11-25T06:12:07.783Z,8.50
2022-11-25T06:14:54.886Z,8.50
2022-11-25T06:17:41.792Z,8.40
2022-11-25T06:20:28.757Z,8.40
2022-11-25T06:23:15.413Z,8.40
2022-11-25T06:26:09.626Z,8.50
2022-11-25T06:28:57.691Z,8.50
2022-11-25T06:31:44.575Z,8.50
2022-11-25T06:34:31.533Z,8.50
2022-11-25T06:37:18.229Z,8.50
2022-11-25T06:40:07.009Z,8.50
2022-11-25T06:42:55.282Z,8.50
2022-11-25T06:45:42.241Z,8.50
2022-11-25T06:48:29.231Z,8.50
2022-11-25T06:51:17.384Z,8.60
2022-11-25T06:54:03.956Z,8.60
2022-11-25T06:56:54.661Z,8.60
2022-11-25T06:59:44.048Z,8.60
2022-11-25T07:02:36.179Z,8.60
2022-11-25T07:05:28.129Z,8.60
2022-11-25T07:08:15.384Z,8.60
2022-11-25T07:11:05.815Z,8.60
2022-11-25T07:13:55.554Z,8.60
2022-11-25T07:16:46.173Z,8.70
2022-11-25T07:19:33.309Z,8.70
2022-11-25T07:22:20.334Z,8.70
2022-11-25T07:25:09.345Z,8.70
2022-11-25T07:27:55.782Z,8.70
2022-11-25T07:33:54.105Z,8.70
2022-11-25T07:36:42.928Z,8.70
2022-11-25T07:39:29.783Z,8.70
2022-11-25T07:42:16.530Z,8.80
2022-11-25T07:45:04.354Z,8.70
2022-11-25T07:47:51.130Z,8.80
2022-11-25T07:50:39.432Z,8.80
2022-11-25T07:53:26.119Z,8.80
2022-11-25T07:56:14.443Z,8.80
2022-11-25T07:59:01.507Z,8.80
2022-11-25T08:01:50.659Z,8.80
2022-11-25T08:04:38.443Z,8.80
2022-11-25T08:07:30.702Z,8.80
2022-11-25T08:10:20.237Z,8.80
2022-11-25T08:13:07.375Z,8.80
2022-11-25T08:15:54.627Z,8.80
2022-11-25T08:18:41.873Z,8.80
2022-11-25T08:21:29.623Z,8.80
2022-11-25T08:24:21.969Z,8.80
2022-11-25T08:27:08.747Z,8.80
2022-11-25T08:29:55.412Z,8.80
2022-11-25T08:32:42.135Z,8.80
2022-11-25T08:35:29.045Z,8.80
2022-11-25T08:38:16.258Z,8.80
2022-11-25T08:41:04.605Z,8.80
2022-11-25T08:43:51.903Z,8.80
2022-11-25T08:46:39.637Z,8.80
2022-11-25T08:49:27.086Z,8.80
2022-11-25T08:52:14.005Z,8.80
2022-11-25T08:55:01.171Z,8.80
2022-11-25T08:57:49.327Z,8.90
2022-11-25T09:00:35.852Z,8.90
2022-11-25T09:03:23.059Z,8.90
2022-11-25T09:06:12.021Z,8.90
2022-11-25T09:09:01.644Z,8.90
2022-11-25T09:11:48.314Z,9.00
2022-11-25T09:14:36.702Z,9.00
2022-11-25T09:17:23.705Z,9.10
2022-11-25T09:20:11.317Z,9.10
2022-11-25T09:23:01.171Z,9.20
2022-11-25T09:25:53.289Z,9.20
2022-11-25T09:28:40.047Z,9.30
2022-11-25T09:31:28.817Z,9.40
2022-11-25T09:34:15.737Z,9.50
2022-11-25T09:37:02.494Z,9.60
2022-11-25T09:39:50.707Z,9.70
2022-11-25T09:43:10.466Z,9.90
2022-11-25T09:46:33.883Z,10.00
2022-11-25T09:49:47.289Z,10.20
2022-11-25T09:52:47.338Z,10.30
2022-11-25T09:55:40.770Z,10.40
2022-11-25T09:58:37.217Z,10.60
2022-11-25T10:01:31.341Z,10.70
2022-11-25T10:04:28.242Z,10.80
2022-11-25T10:07:26.092Z,11.00
2022-11-25T10:10:23.288Z,11.10
2022-11-25T10:13:21.439Z,11.30
2022-11-25T10:16:20.684Z,11.40
2022-11-25T10:19:22.559Z,11.50
2022-11-25T10:22:24.537Z,11.50
2022-11-25T10:25:20.257Z,11.60
2022-11-25T10:28:19.505Z,11.70
2022-11-25T10:31:17.712Z,11.70
2022-11-25T10:34:30.027Z,11.80
2022-11-25T10:37:35.096Z,11.80
2022-11-25T10:40:22.713Z,11.80
2022-11-25T10:43:14.317Z,11.90
2022-11-25T10:46:16.269Z,11.90
2022-11-25T10:49:12.865Z,12.00
2022-11-25T10:51:59.973Z,12.10
2022-11-25T10:54:58.249Z,12.10
2022-11-25T10:57:45.448Z,12.20
2022-11-25T11:00:35.609Z,12.20
2022-11-25T11:03:27.037Z,12.30
2022-11-25T11:06:33.564Z,12.40
2022-11-25T11:09:38.126Z,12.40
2022-11-25T11:12:29.908Z,12.50
2022-11-25T11:15:22.079Z,12.60
2022-11-25T11:18:26.121Z,12.60
2022-11-25T11:21:29.840Z,12.60
2022-11-25T11:24:29.857Z,12.60
2022-11-25T11:27:23.715Z,12.60
2022-11-25T11:30:17.200Z,12.60
2022-11-25T11:33:07.560Z,12.70
2022-11-25T11:36:08.512Z,12.70
2022-11-25T11:39:02.271Z,12.70
2022-11-25T11:42:01.372Z,12.70
2022-11-25T11:45:07.459Z,12.80
2022-11-25T11:48:12.374Z,12.80
2022-11-25T11:51:12.168Z,12.80
2022-11-25T11:54:09.029Z,12.80
2022-11-25T11:57:05.216Z,12.80
2022-11-25T11:59:55.320Z,12.70
2022-11-25T12:03:01.494Z,12.70
2022-11-25T12:05:54.070Z,12.70
2022-11-25T12:08:51.510Z,12.60
2022-11-25T12:11:46.857Z,12.60
2022-11-25T12:14:42.481Z,12.60
2022-11-25T12:17:36.764Z,12.60
2022-11-25T12:20:37.318Z,12.60
2022-11-25T12:23:36.080Z,12.60
2022-11-25T12:26:31.926Z,12.60
2022-11-25T12:29:37.227Z,12.60
2022-11-25T12:32:53.272Z,12.60
2022-11-25T12:35:53.315Z,12.60
2022-11-25T12:38:46.770Z,12.60
2022-11-25T12:41:42.987Z,12.60
2022-11-25T12:44:34.713Z,12.60
2022-11-25T12:47:22.666Z,12.50
2022-11-25T12:50:18.075Z,12.40
2022-11-25T12:53:15.346Z,12.40
2022-11-25T12:56:11.647Z,12.30
2022-11-25T12:59:29.477Z,12.30
2022-11-25T13:02:48.112Z,12.30
2022-11-25T13:06:07.679Z,12.30
2022-11-25T13:09:10.042Z,12.30
2022-11-25T13:12:27.928Z,12.30
2022-11-25T13:15:27.773Z,12.30
2022-11-25T13:18:18.617Z,12.20
2022-11-25T13:21:11.642Z,12.20
2022-11-25T13:24:00.003Z,12.20
2022-11-25T13:26:51.690Z,12.20
2022-11-25T13:30:01.162Z,12.20
2022-11-25T13:32:47.767Z,12.20
2022-11-25T13:35:50.943Z,12.20
2022-11-25T13:39:06.512Z,12.20
2022-11-25T13:42:03.122Z,12.20
2022-11-25T13:44:54.121Z,12.20
2022-11-25T13:47:46.867Z,12.20
2022-11-25T13:50:55.272Z,12.20
2022-11-25T13:53:41.168Z,12.10
2022-11-25T13:56:32.829Z,12.10
2022-11-25T13:59:38.466Z,12.10
2022-11-25T14:02:34.841Z,12.10
2022-11-25T14:05:55.458Z,12.10
2022-11-25T14:08:56.251Z,12.10
2022-11-25T14:12:17.525Z,12.00
2022-11-25T14:15:27.682Z,12.00
2022-11-25T14:22:13.287Z,12.00
2022-11-25T14:25:16.065Z,12.00
2022-11-25T14:28:17.472Z,12.00
2022-11-25T14:31:12.147Z,11.90
2022-11-25T14:34:04.440Z,11.90
2022-11-25T14:36:57.269Z,11.90
2022-11-25T14:39:53.619Z,11.90
2022-11-25T14:42:45.305Z,11.90
2022-11-25T14:45:36.096Z,11.90
2022-11-25T14:48:27.211Z,11.80
2022-11-25T14:51:17.070Z,11.80
2022-11-25T14:54:08.025Z,11.80
2022-11-25T14:56:54.658Z,11.80
2022-11-25T14:59:45.361Z,11.80
2022-11-25T15:02:36.957Z,11.80
2022-11-25T15:05:27.173Z,11.80
2022-11-25T15:08:17.908Z,11.70
2022-11-25T15:11:14.394Z,11.70
2022-11-25T15:14:08.060Z,11.70
2022-11-25T15:16:57.323Z,11.70
2022-11-25T15:19:45.470Z,11.70
2022-11-25T15:22:32.134Z,11.60
2022-11-25T15:25:19.989Z,11.70
2022-11-25T15:28:17.551Z,11.60
2022-11-25T15:31:12.465Z,11.60
2022-11-25T15:34:04.932Z,11.60
2022-11-25T15:36:54.697Z,11.60
2022-11-25T15:39:41.669Z,11.60
2022-11-25T15:42:29.245Z,11.60
2022-11-25T15:45:22.852Z,11.50
2022-11-25T15:48:18.520Z,11.50
2022-11-25T15:51:23.878Z,11.50
2022-11-25T15:54:23.189Z,11.50
2022-11-25T15:57:19.793Z,11.50
2022-11-25T16:00:20.122Z,11.50
2022-11-25T16:03:22.989Z,11.50
2022-11-25T16:06:22.803Z,11.40
2022-11-25T16:09:23.374Z,11.50
2022-11-25T16:12:18.618Z,11.40
2022-11-25T16:15:16.803Z,11.40
2022-11-25T16:18:32.272Z,11.40
2022-11-25T16:21:14.036Z,11.40
2022-11-25T16:24:33.755Z,11.40
2022-11-25T16:27:25.263Z,11.40
2022-11-25T16:30:20.702Z,11.40
2022-11-25T16:33:11.215Z,11.30
2022-11-25T16:35:59.916Z,11.40
2022-11-25T16:38:46.610Z,11.30
2022-11-25T16:41:36.500Z,11.30
2022-11-25T16:44:26.874Z,11.30
2022-11-25T16:47:13.769Z,11.30
2022-11-25T16:50:00.739Z,11.30
2022-11-25T16:52:47.754Z,11.20
2022-11-25T16:55:35.009Z,11.20
2022-11-25T16:58:25.214Z,11.20
2022-11-25T17:01:16.703Z,11.20
2022-11-25T17:04:04.349Z,11.20
2022-11-25T17:07:24.231Z,11.20
2022-11-25T17:09:58.114Z,11.20
2022-11-25T17:12:47.919Z,11.20
2022-11-25T17:15:39.128Z,11.10
2022-11-25T17:18:26.095Z,11.10
2022-11-25T17:21:15.052Z,11.10
2022-11-25T17:24:11.715Z,11.00
2022-11-25T17:27:03.781Z,11.00
2022-11-25T17:29:52.281Z,11.00
2022-11-25T17:32:40.446Z,11.00
2022-11-25T17:35:27.091Z,10.90
2022-11-25T17:38:18.678Z,10.90
2022-11-25T17:41:12.954Z,10.90
2022-11-25T17:43:59.979Z,10.90
2022-11-25T17:46:46.534Z,10.80
2022-11-25T17:49:34.703Z,10.80
2022-11-25T17:52:22.425Z,10.80
2022-11-25T17:55:19.474Z,10.80
2022-11-25T17:58:08.525Z,10.70
2022-11-25T18:00:55.533Z,10.70
2022-11-25T18:03:42.240Z,10.70
2022-11-25T18:06:30.694Z,10.60
2022-11-25T18:09:18.351Z,10.60
2022-11-25T18:12:16.200Z,10.60
2022-11-25T18:15:08.092Z,10.50
2022-11-25T18:18:02.427Z,10.50
2022-11-25T18:20:49.048Z,10.50
2022-11-25T18:23:37.181Z,10.50
2022-11-25T18:26:24.009Z,10.40
2022-11-25T18:29:17.267Z,10.40
2022-11-25T18:32:04.306Z,10.40
2022-11-25T18:34:51.406Z,10.30
2022-11-25T18:37:38.076Z,10.30
2022-11-25T18:40:29.841Z,10.30
2022-11-25T18:43:23.078Z,10.30
2022-11-25T18:46:10.534Z,10.20
2022-11-25T18:48:57.125Z,10.20
2022-11-25T18:51:45.238Z,10.20
2022-11-25T18:54:31.998Z,10.10
2022-11-25T18:57:20.627Z,10.10
2022-11-25T19:03:23.563Z,10.00
2022-11-25T19:06:15.377Z,10.00
2022-11-25T19:09:03.487Z,10.00
2022-11-25T19:11:55.311Z,10.00
2022-11-25T19:14:43.870Z,10.00
2022-11-25T19:17:35.880Z,10.00
2022-11-25T19:20:25.817Z,10.00
2022-11-25T19:23:22.769Z,10.00
2022-11-25T19:26:17.506Z,9.90
2022-11-25T19:29:08.594Z,9.90
2022-11-25T19:32:01.828Z,9.90
2022-11-25T19:34:55.706Z,9.90
2022-11-25T19:37:42.809Z,9.80
2022-11-25T19:40:34.678Z,9.80
2022-11-25T19:43:26.893Z,9.80
2022-11-25T19:46:30.055Z,9.80
2022-11-25T19:49:20.630Z,9.80
2022-11-25T19:52:15.548Z,9.70
2022-11-25T19:55:02.573Z,9.70
2022-11-25T19:57:49.814Z,9.70
2022-11-25T20:00:37.711Z,9.70
2022-11-25T20:03:29.932Z,9.60
2022-11-25T20:06:20.576Z,9.60
2022-11-25T20:09:12.320Z,9.60
2022-11-25T20:12:51.256Z,9.60
2022-11-25T20:15:42.814Z,9.60
2022-11-25T20:18:29.794Z,9.50
2022-11-25T20:21:29.556Z,9.60
2022-11-25T20:24:20.858Z,9.50
2022-11-25T20:27:07.768Z,9.50
2022-11-25T20:29:55.369Z,9.50
2022-11-25T20:32:44.273Z,9.50
2022-11-25T20:35:30.916Z,9.50
2022-11-25T20:38:30.410Z,9.50
2022-11-25T20:41:28.134Z,9.50
2022-11-25T20:44:15.438Z,9.40
2022-11-25T20:47:02.538Z,9.40
2022-11-25T20:49:50.031Z,9.40
2022-11-25T20:52:38.818Z,9.30
2022-11-25T20:55:27.397Z,9.30
2022-11-25T20:58:24.413Z,9.30
2022-11-25T21:01:11.766Z,9.20
2022-11-25T21:03:58.447Z,9.20
2022-11-25T21:06:45.670Z,9.20
2022-11-25T21:09:35.720Z,9.20
2022-11-25T21:12:26.552Z,9.20
2022-11-25T21:15:20.248Z,9.20
2022-11-25T21:18:07.505Z,9.20
2022-11-25T21:21:01.299Z,9.10
2022-11-25T21:23:49.429Z,9.10
2022-11-25T21:26:54.201Z,9.10
2022-11-25T21:30:56.864Z,9.10
2022-11-25T21:33:48.348Z,9.10
2022-11-25T21:36:35.992Z,9.10
2022-11-25T21:39:40.588Z,9.10
2022-11-25T21:42:45.335Z,9.00
2022-11-25T21:45:32.355Z,9.00
2022-11-25T21:48:22.701Z,9.00
2022-11-25T21:51:14.584Z,9.00
2022-11-25T21:54:01.565Z,8.90
2022-11-25T21:56:48.554Z,8.90
2022-11-25T21:59:38.874Z,8.90
2022-11-25T22:02:28.307Z,8.80
2022-11-25T22:05:16.841Z,8.80
2022-11-25T22:08:07.803Z,8.80
2022-11-25T22:10:59.668Z,8.80
2022-11-25T22:13:49.025Z,8.80
2022-11-25T22:16:41.622Z,8.70
2022-11-25T22:19:29.625Z,8.70
2022-11-25T22:22:18.748Z,8.70
2022-11-25T22:25:10.460Z,8.70
2022-11-25T22:27:57.683Z,8.70
2022-11-25T22:30:50.450Z,8.70
2022-11-25T22:33:38.905Z,8.60
2022-11-25T22:36:35.103Z,8.60
2022-11-25T22:39:24.217Z,8.60
2022-11-25T22:42:25.111Z,8.60
2022-11-25T22:45:23.610Z,8.60
2022-11-25T22:48:17.730Z,8.50
2022-11-25T22:51:18.533Z,8.50
2022-11-25T22:54:12.992Z,8.50
2022-11-25T22:57:12.566Z,8.50
2022-11-25T22:59:59.339Z,8.40
2022-11-25T23:02:49.353Z,8.40
2022-11-25T23:05:41.312Z,8.40
2022-11-25T23:08:31.643Z,8.40
2022-11-25T23:11:22.365Z,8.30
2022-11-25T23:14:11.157Z,8.30
2022-11-25T23:16:58.170Z,8.30
2022-11-25T23:19:45.304Z,8.30
2022-11-25T23:22:32.375Z,8.30
2022-11-25T23:25:26.403Z,8.20
2022-11-25T23:28:13.844Z,8.20
2022-11-25T23:31:03.102Z,8.10
2022-11-25T23:33:54.930Z,8.10
2022-11-25T23:36:46.242Z,8.10
2022-11-25T23:39:35.418Z,8.00
2022-11-25T23:42:22.095Z,8.00
2022-11-25T23:45:14.251Z,8.00
2022-11-25T23:48:02.611Z,8.00
2022-11-25T23:50:50.109Z,8.00
2022-11-25T23:53:41.279Z,7.90
2022-11-25T23:56:29.357Z,7.90
2022-11-25T23:59:18.433Z,7.90
